Time;durP1;ratioP1;P1;durP2;ratioP2;P2;SDS_P1;SDS_P2;PMS_P1;PMS_P2;Temp;Humidity;BMP_temperature;BMP_pressure;BME280_temperature;BME280_humidity;BME280_pressure;Samples;Min_cycle;Max_cycle;Signal;HPM_P1;HPM_P2
2023/05/16 00:01:47;;;;;;;15.97;14.47;;;12.60;1.00;;;;;;5079731;28;20170;-43
2023/05/16 00:04:12;;;;;;;15.27;13.87;;;12.60;1.00;;;;;;5081502;28;20189;-45
2023/05/16 00:06:38;;;;;;;15.53;14.03;;;12.70;1.00;;;;;;5081171;28;20555;-44
2023/05/16 00:09:03;;;;;;;14.83;13.30;;;12.80;1.00;;;;;;5079444;28;20192;-44
2023/05/16 00:11:29;;;;;;;17.47;15.87;;;12.80;1.00;;;;;;5080035;28;20200;-44
2023/05/16 00:13:55;;;;;;;17.07;15.47;;;12.90;1.00;;;;;;5078393;28;20630;-44
2023/05/16 00:16:21;;;;;;;19.27;17.33;;;12.90;1.00;;;;;;5080402;28;20181;-43
2023/05/16 00:18:47;;;;;;;19.40;17.50;;;12.90;99.90;;;;;;5080048;28;20530;-44
2023/05/16 00:21:12;;;;;;;20.00;18.10;;;12.80;1.00;;;;;;5081071;28;20804;-45
2023/05/16 00:23:38;;;;;;;21.93;17.50;;;12.70;1.00;;;;;;5079783;28;20184;-46
2023/05/16 00:26:04;;;;;;;19.77;18.00;;;12.60;1.00;;;;;;5078302;28;20249;-48
2023/05/16 00:28:29;;;;;;;22.67;20.27;;;12.60;1.00;;;;;;5078098;28;20236;-45
2023/05/16 00:30:55;;;;;;;23.23;20.93;;;12.50;1.00;;;;;;5077661;28;20240;-44
2023/05/16 00:33:20;;;;;;;22.23;20.13;;;12.50;1.00;;;;;;5078971;28;20563;-45
2023/05/16 00:35:46;;;;;;;23.73;21.30;;;12.40;1.00;;;;;;5078891;28;20173;-44
2023/05/16 00:38:12;;;;;;;23.17;20.87;;;12.40;1.00;;;;;;5079627;28;20208;-44
2023/05/16 00:40:37;;;;;;;22.00;19.80;;;12.30;1.00;;;;;;5079712;28;20481;-44
2023/05/16 00:43:03;;;;;;;22.13;19.93;;;12.30;1.00;;;;;;5080527;28;20224;-44
2023/05/16 00:45:29;;;;;;;22.30;20.20;;;12.20;1.00;;;;;;5080319;28;20430;-44
2023/05/16 00:47:54;;;;;;;24.47;21.90;;;12.20;1.00;;;;;;5080517;28;20196;-45
2023/05/16 00:50:20;;;;;;;24.67;22.07;;;12.20;1.00;;;;;;5079889;28;20254;-44
2023/05/16 00:52:46;;;;;;;22.90;20.60;;;12.20;1.00;;;;;;5079948;28;20189;-43
2023/05/16 00:55:12;;;;;;;24.13;21.83;;;12.20;1.00;;;;;;5078584;28;20183;-45
2023/05/16 00:57:37;;;;;;;23.10;20.80;;;12.10;1.00;;;;;;5080129;28;20829;-44
2023/05/16 01:00:10;;;;;;;23.77;21.40;;;12.10;1.00;;;;;;5079441;28;20412;-44
2023/05/16 01:02:36;;;;;;;23.47;21.10;;;12.10;1.00;;;;;;5078989;28;20181;-44
2023/05/16 01:05:09;;;;;;;27.17;23.73;;;12.10;1.00;;;;;;5080655;28;20430;-43
2023/05/16 01:07:34;;;;;;;25.47;22.87;;;12.00;1.00;;;;;;5080629;28;20855;-44
2023/05/16 01:10:01;;;;;;;25.90;23.20;;;12.00;1.00;;;;;;5079461;28;20454;-43
2023/05/16 01:12:37;;;;;;;24.90;22.40;;;12.00;1.00;;;;;;5080270;28;20256;-46
2023/05/16 01:15:12;;;;;;;29.10;25.00;;;11.90;1.00;;;;;;5079501;28;20395;-43
2023/05/16 01:17:41;;;;;;;29.10;26.00;;;11.90;1.00;;;;;;5080266;28;20423;-44
2023/05/16 01:20:14;;;;;;;30.40;27.23;;;11.90;1.00;;;;;;5080645;28;20400;-43
2023/05/16 01:22:50;;;;;;;32.40;27.33;;;11.90;1.00;;;;;;5080593;28;20423;-43
2023/05/16 01:25:31;;;;;;;30.57;27.47;;;11.90;1.00;;;;;;5080245;28;20448;-43
2023/05/16 01:27:58;;;;;;;29.50;26.30;;;11.90;17.00;;;;;;5078912;28;20471;-45
2023/05/16 01:30:24;;;;;;;31.87;28.00;;;11.80;39.90;;;;;;5076912;28;20892;-46
2023/05/16 01:32:50;;;;;;;33.30;28.50;;;11.80;43.00;;;;;;5077863;28;20529;-44
2023/05/16 01:35:16;;;;;;;38.40;30.10;;;11.80;73.70;;;;;;5078019;28;20564;-47
2023/05/16 01:37:48;;;;;;;33.10;29.50;;;11.80;92.70;;;;;;5078256;28;20415;-43
2023/05/16 01:40:29;;;;;;;33.90;30.40;;;11.70;99.90;;;;;;5079024;28;20646;-45
2023/05/16 01:42:55;;;;;;;34.97;30.07;;;11.70;99.90;;;;;;5078162;28;20517;-44
2023/05/16 01:45:33;;;;;;;32.20;28.67;;;11.70;99.90;;;;;;5079695;28;20410;-44
2023/05/16 01:48:12;;;;;;;40.53;32.50;;;11.70;99.90;;;;;;5078536;28;20437;-45
2023/05/16 01:50:44;;;;;;;34.03;30.33;;;11.60;99.90;;;;;;5078521;28;20459;-45
2023/05/16 01:53:22;;;;;;;36.03;31.00;;;11.60;99.90;;;;;;5079458;28;20423;-45
2023/05/16 01:55:50;;;;;;;37.13;32.30;;;11.60;99.90;;;;;;5079286;28;20411;-47
2023/05/16 01:58:19;;;;;;;39.43;32.70;;;11.60;99.90;;;;;;5079649;28;20424;-43
2023/05/16 02:00:45;;;;;;;36.40;32.40;;;11.50;99.90;;;;;;5060907;28;20423;-45
2023/05/16 02:03:10;;;;;;;37.60;33.50;;;11.50;99.90;;;;;;5078696;28;20694;-45
2023/05/16 02:05:36;;;;;;;41.33;33.37;;;11.40;99.90;;;;;;5076966;28;20180;-43
2023/05/16 02:08:02;;;;;;;43.47;34.80;;;11.40;99.90;;;;;;5078713;28;20185;-45
2023/05/16 02:10:27;;;;;;;45.00;32.37;;;11.40;99.90;;;;;;5079111;28;20196;-44
2023/05/16 02:12:53;;;;;;;40.27;34.20;;;11.40;99.90;;;;;;5079241;28;20184;-44
2023/05/16 02:15:19;;;;;;;40.37;31.80;;;11.40;99.90;;;;;;5081402;28;20180;-45
2023/05/16 02:17:46;;;;;;;39.90;33.07;;;11.40;99.90;;;;;;5097817;28;20238;-45
2023/05/16 02:20:12;;;;;;;39.93;34.40;;;11.30;99.90;;;;;;5097654;28;20522;-44
2023/05/16 02:25:59;;;;;;;42.67;34.07;;;11.20;99.90;;;;;;5098506;28;20482;-44
2023/05/16 02:28:25;;;;;;;42.23;35.23;;;11.20;99.90;;;;;;5097446;28;20633;-43
2023/05/16 02:30:57;;;;;;;37.10;31.47;;;11.20;99.90;;;;;;5098213;28;20265;-44
2023/05/16 02:33:25;;;;;;;38.73;33.13;;;11.10;99.90;;;;;;5098786;28;20380;-45
2023/05/16 02:35:51;;;;;;;47.23;36.03;;;11.10;99.90;;;;;;5099297;28;20558;-45
2023/05/16 02:38:17;;;;;;;43.70;33.70;;;11.10;99.90;;;;;;5098213;28;20422;-45
2023/05/16 02:40:42;;;;;;;43.87;35.40;;;11.10;99.90;;;;;;5098544;28;20221;-44
2023/05/16 02:43:09;;;;;;;41.60;33.40;;;11.10;99.90;;;;;;5098582;28;20473;-45
2023/05/16 02:45:34;;;;;;;47.67;39.13;;;11.10;99.90;;;;;;5098768;28;20172;-44
2023/05/16 02:48:00;;;;;;;43.63;34.57;;;11.10;99.90;;;;;;5096852;28;20437;-45
2023/05/16 02:50:25;;;;;;;46.40;36.83;;;11.00;99.90;;;;;;5096386;28;20547;-44
2023/05/16 02:52:51;;;;;;;47.17;36.53;;;11.00;99.90;;;;;;5097004;28;20439;-44
2023/05/16 02:55:16;;;;;;;45.83;35.87;;;11.00;99.90;;;;;;5096903;28;20238;-44
2023/05/16 02:57:43;;;;;;;47.10;36.37;;;11.00;99.90;;;;;;5096826;28;20173;-46
2023/05/16 03:00:10;;;;;;;47.77;38.63;;;11.00;99.90;;;;;;5097276;28;20179;-44
2023/05/16 03:02:36;;;;;;;46.37;37.20;;;11.00;99.90;;;;;;5097923;28;20514;-43
2023/05/16 03:05:03;;;;;;;45.10;35.20;;;10.90;99.90;;;;;;5098186;28;20429;-44
2023/05/16 03:07:29;;;;;;;48.30;36.60;;;10.90;99.90;;;;;;5095317;28;20429;-43
2023/05/16 03:09:55;;;;;;;47.20;38.03;;;10.90;99.90;;;;;;5096852;28;20494;-45
2023/05/16 03:12:20;;;;;;;51.67;38.60;;;10.90;99.90;;;;;;5097600;28;20421;-44
2023/05/16 03:14:46;;;;;;;53.80;38.17;;;10.90;99.90;;;;;;5098160;28;20172;-43
2023/05/16 03:17:11;;;;;;;48.17;38.47;;;10.90;99.90;;;;;;5098137;28;20283;-43
2023/05/16 03:19:37;;;;;;;51.83;38.90;;;10.90;99.90;;;;;;5098405;28;20168;-43
2023/05/16 03:22:03;;;;;;;52.27;40.33;;;10.90;99.90;;;;;;5098370;28;20251;-46
2023/05/16 03:24:28;;;;;;;53.93;40.70;;;10.90;99.90;;;;;;5097913;28;20180;-44
2023/05/16 03:26:54;;;;;;;55.83;39.97;;;10.90;99.90;;;;;;5098242;28;20277;-45
2023/05/16 03:29:20;;;;;;;55.40;41.20;;;10.90;99.90;;;;;;5097397;28;20224;-43
2023/05/16 03:31:46;;;;;;;60.40;42.77;;;10.90;99.90;;;;;;5097777;28;20464;-43
2023/05/16 03:34:11;;;;;;;55.80;41.50;;;10.80;99.90;;;;;;5097369;28;20177;-44
2023/05/16 03:36:38;;;;;;;53.37;40.23;;;10.80;1.00;;;;;;5097898;28;20203;-43
2023/05/16 03:39:04;;;;;;;56.03;43.20;;;10.80;99.90;;;;;;5096901;28;20555;-46
2023/05/16 03:41:30;;;;;;;63.20;43.83;;;10.80;99.90;;;;;;5097992;28;20552;-44
2023/05/16 03:43:55;;;;;;;60.73;44.30;;;10.80;1.00;;;;;;5097556;28;20415;-45
2023/05/16 03:46:21;;;;;;;61.43;43.40;;;10.80;1.00;;;;;;5097208;28;20176;-43
2023/05/16 03:48:46;;;;;;;62.47;43.87;;;10.80;1.00;;;;;;5096090;28;20501;-45
2023/05/16 03:51:12;;;;;;;58.47;44.30;;;10.80;1.00;;;;;;5094666;28;20207;-45
2023/05/16 03:53:37;;;;;;;56.33;42.87;;;10.80;1.00;;;;;;5093108;28;20255;-45
2023/05/16 03:56:03;;;;;;;62.60;42.23;;;10.80;1.00;;;;;;5094785;28;20192;-44
2023/05/16 03:58:29;;;;;;;56.53;41.87;;;10.80;1.00;;;;;;5095975;28;20466;-45
2023/05/16 04:00:55;;;;;;;64.33;45.70;;;10.80;1.00;;;;;;5095515;28;20176;-46
2023/05/16 04:03:27;;;;;;;67.53;46.37;;;10.80;1.00;;;;;;5095932;28;20418;-44
2023/05/16 04:05:53;;;;;;;62.87;47.13;;;10.80;1.00;;;;;;5095001;28;20172;-43
2023/05/16 04:08:19;;;;;;;58.50;43.17;;;10.90;1.00;;;;;;5098499;28;20467;-44
2023/05/16 04:10:44;;;;;;;65.50;46.20;;;10.90;1.00;;;;;;5099739;28;20487;-45
2023/05/16 04:13:10;;;;;;;67.67;45.33;;;10.90;1.00;;;;;;5099373;28;20251;-44
2023/05/16 04:15:36;;;;;;;64.03;44.43;;;10.90;1.00;;;;;;5098617;28;20218;-44
2023/05/16 04:18:02;;;;;;;65.57;45.77;;;10.90;1.00;;;;;;5098419;28;20192;-44
2023/05/16 04:20:27;;;;;;;63.80;45.80;;;11.00;1.00;;;;;;5099109;28;20638;-47
2023/05/16 04:22:53;;;;;;;70.23;46.63;;;11.00;1.00;;;;;;5098834;28;20422;-44
2023/05/16 04:25:18;;;;;;;60.17;45.03;;;11.00;1.00;;;;;;5099281;28;20712;-45
2023/05/16 04:27:44;;;;;;;65.27;45.10;;;11.00;1.00;;;;;;5100100;28;20227;-46
2023/05/16 04:30:10;;;;;;;62.40;45.93;;;11.10;1.00;;;;;;5099662;28;20356;-44
2023/05/16 04:32:36;;;;;;;57.87;44.00;;;11.10;1.00;;;;;;5099644;28;20479;-43
2023/05/16 04:35:02;;;;;;;68.93;46.33;;;11.10;1.00;;;;;;5101206;28;20503;-45
2023/05/16 04:37:28;;;;;;;58.43;44.27;;;11.10;1.00;;;;;;5099954;28;20293;-44
2023/05/16 04:39:53;;;;;;;64.63;46.77;;;11.00;1.00;;;;;;5096966;28;20422;-45
2023/05/16 04:42:19;;;;;;;60.63;43.07;;;11.10;1.00;;;;;;5096008;28;20600;-46
2023/05/16 04:44:46;;;;;;;61.03;44.13;;;11.00;1.00;;;;;;5095626;28;20267;-44
2023/05/16 04:47:12;;;;;;;62.47;43.53;;;11.10;1.00;;;;;;5093733;28;20556;-44
2023/05/16 04:49:38;;;;;;;58.93;43.73;;;11.10;1.00;;;;;;5093606;28;20427;-44
2023/05/16 04:52:05;;;;;;;60.07;43.57;;;11.10;1.00;;;;;;5095746;28;20540;-44
2023/05/16 04:54:30;;;;;;;56.13;41.23;;;11.10;1.00;;;;;;5095724;28;20244;-43
2023/05/16 04:56:56;;;;;;;53.73;41.43;;;11.10;1.00;;;;;;5098219;28;20771;-45
2023/05/16 04:59:22;;;;;;;54.27;41.93;;;11.10;1.00;;;;;;5098791;28;20168;-46
2023/05/16 05:01:47;;;;;;;57.00;40.50;;;11.20;1.00;;;;;;5094601;28;20169;-43
2023/05/16 05:04:13;;;;;;;59.70;42.40;;;11.20;1.00;;;;;;5095168;28;20441;-44
2023/05/16 05:06:38;;;;;;;55.07;41.20;;;11.20;1.00;;;;;;5096176;28;20172;-43
2023/05/16 05:09:07;;;;;;;53.37;40.07;;;11.20;1.00;;;;;;5097209;28;20184;-45
2023/05/16 05:11:34;;;;;;;63.13;43.20;;;11.30;1.00;;;;;;5095694;28;20269;-46
2023/05/16 05:14:00;;;;;;;56.13;41.13;;;11.30;99.90;;;;;;5094444;28;20478;-46
2023/05/16 05:16:25;;;;;;;55.70;42.50;;;11.30;99.90;;;;;;5092178;28;20463;-45
2023/05/16 05:18:51;;;;;;;56.97;42.27;;;11.30;99.90;;;;;;5092599;28;20287;-46
2023/05/16 05:21:19;;;;;;;60.17;42.40;;;11.30;1.00;;;;;;5089850;28;20203;-44
2023/05/16 05:23:45;;;;;;;56.17;41.73;;;11.30;99.90;;;;;;5089228;28;20258;-44
2023/05/16 05:26:10;;;;;;;57.30;42.53;;;11.30;99.90;;;;;;5091857;28;20521;-45
2023/05/16 05:28:36;;;;;;;56.40;39.60;;;11.40;99.90;;;;;;5093531;28;20524;-45
2023/05/16 05:31:04;;;;;;;51.97;38.70;;;11.40;99.90;;;;;;5094772;28;20564;-45
2023/05/16 05:33:30;;;;;;;55.97;41.00;;;11.40;99.90;;;;;;5095963;28;20652;-48
2023/05/16 05:35:55;;;;;;;55.30;40.17;;;11.40;99.90;;;;;;5096977;28;20411;-45
2023/05/16 05:38:21;;;;;;;55.03;40.73;;;11.40;99.90;;;;;;5097136;28;20260;-45
2023/05/16 05:40:48;;;;;;;57.40;42.37;;;11.50;99.90;;;;;;5097909;28;20430;-46
2023/05/16 05:43:14;;;;;;;52.07;40.47;;;11.50;99.90;;;;;;5096254;28;20437;-44
2023/05/16 05:45:39;;;;;;;53.80;39.50;;;11.50;99.90;;;;;;5096062;28;20521;-48
2023/05/16 05:48:05;;;;;;;50.77;40.83;;;11.50;99.90;;;;;;5096126;28;20196;-46
2023/05/16 05:50:31;;;;;;;57.43;40.37;;;11.50;99.90;;;;;;5092686;28;20327;-45
2023/05/16 05:52:56;;;;;;;54.27;40.80;;;11.50;99.90;;;;;;5094559;28;20203;-47
2023/05/16 05:55:22;;;;;;;57.80;39.83;;;11.50;99.90;;;;;;5096214;28;20180;-45
2023/05/16 05:57:48;;;;;;;51.33;39.73;;;11.50;99.90;;;;;;5095955;28;20609;-45
2023/05/16 06:00:13;;;;;;;44.97;36.33;;;11.50;99.90;;;;;;5095219;28;20553;-46
2023/05/16 06:02:39;;;;;;;54.17;38.80;;;11.50;99.90;;;;;;5083333;28;20208;-43
2023/05/16 06:05:06;;;;;;;52.80;38.53;;;11.50;99.90;;;;;;5087463;28;20184;-46
2023/05/16 06:07:31;;;;;;;49.33;37.90;;;11.50;99.90;;;;;;5092194;28;20179;-45
2023/05/16 06:09:57;;;;;;;50.60;39.30;;;11.50;99.90;;;;;;5093050;28;20862;-46
2023/05/16 06:12:22;;;;;;;50.60;39.60;;;11.60;99.90;;;;;;5073678;28;20172;-45
2023/05/16 06:14:48;;;;;;;49.63;37.07;;;11.50;99.90;;;;;;5094350;28;20180;-47
2023/05/16 06:17:13;;;;;;;48.60;38.10;;;11.50;99.90;;;;;;5095998;28;20427;-45
2023/05/16 06:19:39;;;;;;;47.60;38.63;;;11.50;99.90;;;;;;5097421;28;20501;-45
2023/05/16 06:22:05;;;;;;;45.43;36.40;;;11.50;99.90;;;;;;5097744;28;20173;-47
2023/05/16 06:24:31;;;;;;;49.80;38.20;;;11.50;99.90;;;;;;5097201;28;20184;-45
2023/05/16 06:26:57;;;;;;;41.00;35.40;;;11.60;99.90;;;;;;5093600;28;20301;-45
2023/05/16 06:29:22;;;;;;;50.50;38.83;;;11.60;99.90;;;;;;5093222;28;20525;-47
2023/05/16 06:31:48;;;;;;;41.93;32.40;;;11.70;99.90;;;;;;5093800;28;20545;-45
2023/05/16 06:34:14;;;;;;;43.57;36.17;;;11.80;99.90;;;;;;5095353;28;20165;-45
2023/05/16 06:36:39;;;;;;;41.90;32.77;;;11.90;99.90;;;;;;5095385;28;20165;-46
2023/05/16 06:39:05;;;;;;;41.77;34.53;;;12.00;99.90;;;;;;5088402;28;20169;-46
2023/05/16 06:41:31;;;;;;;41.93;33.97;;;12.10;99.90;;;;;;5073727;28;20181;-48
2023/05/16 06:43:56;;;;;;;40.10;31.83;;;12.20;99.90;;;;;;5075412;28;20483;-45
2023/05/16 06:46:22;;;;;;;38.63;33.03;;;12.20;99.90;;;;;;5076647;28;20197;-47
2023/05/16 06:48:48;;;;;;;38.20;32.20;;;12.20;47.30;;;;;;5075782;28;20185;-46
2023/05/16 06:51:13;;;;;;;41.00;33.50;;;12.10;41.60;;;;;;5074351;28;20209;-46
2023/05/16 06:53:39;;;;;;;35.70;31.20;;;12.10;20.70;;;;;;5075067;28;20164;-45
2023/05/16 06:56:06;;;;;;;36.33;30.50;;;12.00;1.00;;;;;;5078215;28;20433;-45
2023/05/16 06:58:31;;;;;;;34.40;30.50;;;12.00;1.00;;;;;;5075542;28;20172;-45
2023/05/16 07:00:57;;;;;;;33.43;29.80;;;12.00;1.00;;;;;;5076282;28;20439;-47
2023/05/16 07:03:22;;;;;;;35.00;29.47;;;11.90;1.00;;;;;;5074555;28;20177;-46
2023/05/16 07:05:51;;;;;;;34.60;29.93;;;11.90;8.60;;;;;;5075230;28;20200;-46
2023/05/16 07:08:17;;;;;;;37.00;31.63;;;11.90;31.80;;;;;;5075048;28;20455;-46
2023/05/16 07:10:43;;;;;;;37.23;30.20;;;11.90;4.00;;;;;;5074364;28;20500;-45
2023/05/16 07:13:09;;;;;;;37.33;30.77;;;11.90;57.20;;;;;;5074289;28;20184;-45
2023/05/16 07:15:35;;;;;;;33.73;28.50;;;11.90;25.70;;;;;;5073471;28;20512;-44
2023/05/16 07:18:01;;;;;;;38.60;30.27;;;11.80;62.90;;;;;;5074965;28;20423;-45
2023/05/16 07:20:26;;;;;;;31.23;27.63;;;11.80;29.60;;;;;;5075115;28;20189;-44
2023/05/16 07:22:52;;;;;;;33.77;27.40;;;11.70;93.60;;;;;;5074625;28;20461;-46
2023/05/16 07:25:17;;;;;;;32.83;29.20;;;11.70;95.90;;;;;;5075131;28;20180;-45
2023/05/16 07:27:46;;;;;;;32.53;27.97;;;11.70;99.90;;;;;;5075619;28;20229;-45
2023/05/16 07:30:12;;;;;;;35.37;29.67;;;11.70;99.90;;;;;;5075076;28;20215;-48
2023/05/16 07:32:38;;;;;;;35.07;28.63;;;11.60;99.90;;;;;;5057275;28;20480;-46
2023/05/16 07:35:04;;;;;;;30.90;26.47;;;11.60;99.90;;;;;;5074875;28;20431;-44
2023/05/16 07:37:30;;;;;;;32.23;26.90;;;11.60;99.90;;;;;;5072804;28;20481;-46
2023/05/16 07:39:55;;;;;;;30.73;25.43;;;11.60;99.90;;;;;;5072705;28;20427;-44
2023/05/16 07:42:21;;;;;;;27.23;24.43;;;11.70;99.90;;;;;;5073423;28;20473;-44
2023/05/16 07:44:47;;;;;;;26.17;22.40;;;11.70;78.70;;;;;;5075090;28;20173;-44
2023/05/16 07:47:12;;;;;;;26.53;23.03;;;11.80;14.00;;;;;;5073887;28;20181;-44
2023/05/16 07:49:38;;;;;;;25.63;22.83;;;11.90;1.00;;;;;;5074841;28;20447;-45
2023/05/16 07:52:04;;;;;;;23.53;21.03;;;12.10;1.00;;;;;;5076728;28;20591;-43
2023/05/16 07:54:30;;;;;;;21.63;19.37;;;12.30;1.00;;;;;;5076977;28;20185;-46
2023/05/16 07:56:56;;;;;;;22.40;19.97;;;12.50;1.00;;;;;;5075580;28;20404;-48
2023/05/16 07:59:21;;;;;;;21.37;19.17;;;12.60;1.00;;;;;;5074355;28;20404;-46
2023/05/16 08:01:47;;;;;;;24.33;19.50;;;12.70;99.90;;;;;;5075622;28;20174;-46
2023/05/16 08:04:13;;;;;;;24.13;21.43;;;12.70;99.90;;;;;;5071450;28;20211;-45
2023/05/16 08:06:38;;;;;;;22.17;19.83;;;12.70;99.90;;;;;;5075673;28;20178;-44
2023/05/16 08:09:04;;;;;;;21.47;19.17;;;12.60;99.90;;;;;;5076929;28;20551;-45
2023/05/16 08:11:30;;;;;;;20.83;18.63;;;12.60;1.00;;;;;;5076808;28;20209;-45
2023/05/16 08:13:55;;;;;;;22.70;20.40;;;12.60;1.00;;;;;;5077784;28;20415;-46
2023/05/16 08:16:21;;;;;;;22.83;19.23;;;12.70;1.00;;;;;;5077153;28;20185;-46
2023/05/16 08:18:46;;;;;;;26.93;22.70;;;12.90;99.90;;;;;;5077850;28;20201;-46
2023/05/16 08:21:13;;;;;;;29.73;24.00;;;12.90;99.90;;;;;;5077946;28;20185;-47
2023/05/16 08:23:39;;;;;;;27.57;23.67;;;13.00;1.00;;;;;;5076718;28;20177;-45
2023/05/16 08:26:04;;;;;;;28.30;22.63;;;12.90;40.10;;;;;;5077701;28;20447;-48
2023/05/16 08:28:30;;;;;;;25.80;22.03;;;12.90;99.90;;;;;;5076550;28;20490;-46
2023/05/16 08:30:55;;;;;;;26.10;22.67;;;12.90;1.00;;;;;;5077333;28;20472;-44
2023/05/16 08:33:21;;;;;;;22.27;20.00;;;12.80;1.00;;;;;;5077178;28;20621;-47
2023/05/16 08:35:48;;;;;;;27.37;21.87;;;12.60;1.00;;;;;;5075837;28;20177;-45
2023/05/16 08:38:14;;;;;;;24.50;21.70;;;12.50;99.90;;;;;;5076833;28;20172;-46
2023/05/16 08:40:41;;;;;;;23.60;21.13;;;12.40;99.90;;;;;;5075225;28;20852;-44
2023/05/16 08:43:07;;;;;;;23.80;20.93;;;12.30;99.90;;;;;;5077601;28;20184;-45
2023/05/16 08:45:33;;;;;;;23.67;21.23;;;12.20;99.90;;;;;;5076179;28;20423;-45
2023/05/16 08:48:00;;;;;;;24.63;20.70;;;12.10;1.00;;;;;;5074816;28;20426;-45
2023/05/16 08:50:30;;;;;;;25.93;22.20;;;12.00;1.00;;;;;;5076608;28;20467;-46
2023/05/16 08:52:55;;;;;;;23.47;21.07;;;11.90;1.00;;;;;;5073988;28;20418;-45
2023/05/16 08:55:22;;;;;;;23.13;20.63;;;11.90;1.00;;;;;;5075120;28;20537;-46
2023/05/16 08:57:50;;;;;;;24.77;20.17;;;11.90;1.00;;;;;;5074673;28;20173;-45
2023/05/16 09:00:18;;;;;;;26.87;22.27;;;11.90;1.00;;;;;;5073681;28;20427;-46
2023/05/16 09:02:43;;;;;;;23.50;20.83;;;12.00;1.00;;;;;;5074268;28;20411;-46
2023/05/16 09:05:12;;;;;;;28.30;21.40;;;12.00;1.00;;;;;;5076217;28;20431;-45
2023/05/16 09:07:37;;;;;;;27.70;22.87;;;12.00;1.00;;;;;;5076418;28;20182;-45
2023/05/16 09:10:06;;;;;;;26.70;22.10;;;12.00;1.00;;;;;;5075646;28;20431;-46
2023/05/16 09:12:33;;;;;;;27.27;23.47;;;12.00;1.00;;;;;;5073137;28;20165;-46
2023/05/16 09:15:01;;;;;;;31.93;25.07;;;12.00;1.00;;;;;;5055169;28;20596;-45
2023/05/16 09:17:35;;;;;;;32.13;25.07;;;12.00;1.00;;;;;;5072522;28;20450;-44
2023/05/16 09:20:14;;;;;;;29.43;24.40;;;11.90;1.00;;;;;;5072724;28;20707;-46
2023/05/16 09:22:55;;;;;;;29.40;23.43;;;11.80;1.00;;;;;;5074891;28;20510;-46
2023/05/16 09:25:23;;;;;;;29.90;24.90;;;11.90;1.00;;;;;;5073753;28;20428;-46
2023/05/16 09:27:53;;;;;;;31.20;26.97;;;12.00;1.00;;;;;;5073705;28;20455;-45
2023/05/16 09:30:22;;;;;;;28.13;25.20;;;12.20;1.00;;;;;;5074578;28;20583;-44
2023/05/16 09:32:51;;;;;;;36.13;26.70;;;12.30;1.00;;;;;;5074381;28;20403;-49
2023/05/16 09:35:17;;;;;;;28.53;23.00;;;12.50;99.90;;;;;;5072707;28;20420;-45
2023/05/16 09:37:45;;;;;;;29.43;22.77;;;12.60;99.30;;;;;;5055507;28;20418;-44
2023/05/16 09:40:11;;;;;;;32.37;24.20;;;12.60;68.70;;;;;;5074777;28;20469;-45
2023/05/16 09:42:37;;;;;;;31.40;24.50;;;12.50;20.30;;;;;;5074444;28;20746;-46
2023/05/16 09:45:03;;;;;;;28.03;23.67;;;12.50;99.90;;;;;;5074332;28;20427;-44
2023/05/16 09:47:28;;;;;;;27.03;24.10;;;12.60;99.90;;;;;;5075561;28;20427;-46
2023/05/16 09:49:55;;;;;;;28.27;24.50;;;12.70;74.10;;;;;;5074193;28;20628;-45
2023/05/16 09:52:21;;;;;;;29.63;23.60;;;12.80;1.00;;;;;;5071781;28;20197;-47
2023/05/16 09:54:49;;;;;;;28.50;24.07;;;12.80;64.20;;;;;;5073539;28;20607;-46
2023/05/16 09:57:19;;;;;;;26.67;23.80;;;12.80;87.10;;;;;;5075509;28;20176;-45
2023/05/16 09:59:44;;;;;;;29.10;21.70;;;12.90;1.00;;;;;;5086577;28;20855;-44
2023/05/16 10:02:11;;;;;;;27.33;22.60;;;12.90;93.80;;;;;;5096282;28;20802;-46
2023/05/16 10:04:37;;;;;;;25.20;21.30;;;13.00;1.00;;;;;;5093570;28;20230;-45
2023/05/16 10:07:03;;;;;;;25.97;22.03;;;13.20;1.00;;;;;;5092830;28;20449;-46
2023/05/16 10:09:33;;;;;;;26.87;20.97;;;13.40;99.90;;;;;;5091634;28;20442;-45
2023/05/16 10:12:04;;;;;;;24.80;20.17;;;13.60;1.00;;;;;;5079329;28;20840;-45
2023/05/16 10:14:33;;;;;;;22.53;18.50;;;13.70;99.90;;;;;;5092991;28;20553;-44
2023/05/16 10:17:00;;;;;;;26.03;20.93;;;13.80;99.90;;;;;;5095181;28;20899;-45
2023/05/16 10:19:26;;;;;;;22.03;19.70;;;13.90;1.00;;;;;;5091135;28;20905;-45
2023/05/16 10:21:57;;;;;;;22.70;20.27;;;13.70;1.00;;;;;;5093264;28;20509;-46
2023/05/16 10:24:28;;;;;;;24.20;21.70;;;13.70;99.90;;;;;;5093980;28;20430;-44
2023/05/16 10:26:54;;;;;;;23.20;20.20;;;13.60;99.90;;;;;;5094389;28;20399;-46
2023/05/16 10:29:20;;;;;;;22.77;18.50;;;13.50;99.90;;;;;;5092091;28;20930;-45
2023/05/16 10:31:47;;;;;;;20.83;18.47;;;13.40;1.00;;;;;;5091932;28;20204;-45
2023/05/16 10:34:15;;;;;;;22.13;18.50;;;13.20;11.40;;;;;;5074790;28;20496;-44
2023/05/16 10:36:41;;;;;;;23.20;19.10;;;13.10;99.90;;;;;;5092383;28;20422;-47
2023/05/16 10:39:07;;;;;;;21.63;18.63;;;12.90;99.90;;;;;;5092511;28;20805;-47
2023/05/16 10:41:33;;;;;;;23.50;18.70;;;12.80;1.00;;;;;;5092139;28;20529;-46
2023/05/16 10:43:58;;;;;;;23.57;17.97;;;12.70;1.00;;;;;;5093377;28;20279;-46
2023/05/16 10:46:26;;;;;;;21.60;18.00;;;12.60;1.00;;;;;;5093659;28;20536;-44
2023/05/16 10:48:51;;;;;;;22.27;17.37;;;12.60;1.00;;;;;;5092744;28;20180;-45
2023/05/16 10:51:33;;;;;;;23.67;17.20;;;12.50;99.90;;;;;;5093142;28;20466;-45
2023/05/16 10:54:06;;;;;;;17.70;15.80;;;12.50;99.90;;;;;;5094955;28;20212;-46
2023/05/16 10:56:32;;;;;;;21.43;18.77;;;12.50;99.90;;;;;;5093222;28;20665;-44
2023/05/16 10:58:57;;;;;;;19.40;17.30;;;12.50;1.00;;;;;;5094160;28;20414;-44
2023/05/16 11:01:28;;;;;;;21.53;17.13;;;12.60;1.00;;;;;;5092404;28;20515;-44
2023/05/16 11:06:23;;;;;;;20.80;16.53;;;12.70;1.00;;;;;;5092151;28;20505;-45
2023/05/16 11:11:46;;;;;;;16.27;14.60;;;12.80;1.00;;;;;;5094146;28;20564;-46
2023/05/16 11:14:25;;;;;;;16.70;14.30;;;12.80;1.00;;;;;;5094775;28;20787;-47
2023/05/16 11:16:55;;;;;;;14.50;12.30;;;12.70;1.00;;;;;;5097699;28;20478;-45
2023/05/16 11:19:42;;;;;;;14.00;12.47;;;12.60;1.00;;;;;;5096952;28;20697;-47
2023/05/16 11:22:10;;;;;;;16.97;13.07;;;12.60;99.90;;;;;;5097061;28;20464;-45
2023/05/16 11:24:37;;;;;;;13.50;12.10;;;12.60;99.90;;;;;;5095349;28;20491;-44
2023/05/16 11:27:04;;;;;;;12.73;11.23;;;12.40;99.90;;;;;;5095753;28;20513;-44
2023/05/16 11:29:34;;;;;;;11.53;10.23;;;12.40;99.90;;;;;;5096096;28;20611;-44
2023/05/16 11:32:01;;;;;;;13.63;11.97;;;12.30;1.00;;;;;;5094307;28;20469;-45
2023/05/16 11:34:27;;;;;;;11.17;10.03;;;12.20;1.00;;;;;;5097269;28;20461;-46
2023/05/16 11:36:53;;;;;;;13.73;12.27;;;12.10;1.00;;;;;;5096083;28;20403;-45
2023/05/16 11:39:19;;;;;;;14.20;12.70;;;12.10;1.00;;;;;;5098636;28;20799;-46
2023/05/16 11:41:45;;;;;;;13.63;12.23;;;11.90;1.00;;;;;;5096601;28;20775;-45
2023/05/16 11:44:11;;;;;;;14.70;12.67;;;11.80;1.00;;;;;;5094563;28;20561;-44
2023/05/16 11:46:39;;;;;;;13.30;11.60;;;11.70;20.90;;;;;;5096550;28;20414;-44
2023/05/16 11:49:06;;;;;;;12.93;11.63;;;11.70;36.70;;;;;;5083052;28;20811;-47
2023/05/16 11:51:33;;;;;;;12.10;10.17;;;11.70;23.30;;;;;;5075592;28;20787;-45
2023/05/16 11:53:59;;;;;;;13.57;10.90;;;11.70;1.00;;;;;;5077169;28;20771;-44
2023/05/16 11:56:26;;;;;;;10.90;9.77;;;11.70;41.00;;;;;;5076541;28;20419;-44
2023/05/16 11:58:51;;;;;;;14.00;10.87;;;11.70;7.80;;;;;;5075751;28;20173;-46
2023/05/16 12:01:18;;;;;;;11.27;9.57;;;11.70;50.40;;;;;;5075916;28;20541;-44
2023/05/16 12:03:44;;;;;;;10.37;9.27;;;11.70;79.30;;;;;;5084694;28;20184;-46
2023/05/16 12:06:11;;;;;;;11.10;10.00;;;11.70;2.90;;;;;;5096349;28;20433;-45
2023/05/16 12:08:36;;;;;;;11.23;10.00;;;11.80;1.30;;;;;;5095482;28;20430;-46
2023/05/16 12:11:02;;;;;;;10.30;9.20;;;11.80;1.00;;;;;;5092340;28;20462;-45
2023/05/16 12:13:27;;;;;;;11.23;10.13;;;11.90;1.00;;;;;;5095305;28;20522;-45
2023/05/16 12:15:53;;;;;;;11.93;10.67;;;12.00;1.00;;;;;;5087958;28;20289;-44
2023/05/16 12:18:20;;;;;;;14.73;9.93;;;12.10;1.00;;;;;;5086931;28;20241;-43
2023/05/16 12:20:46;;;;;;;11.23;10.07;;;12.20;1.00;;;;;;5077183;28;20180;-45
2023/05/16 12:23:12;;;;;;;12.60;10.00;;;12.20;1.00;;;;;;5090125;28;20824;-47
2023/05/16 12:25:44;;;;;;;9.50;8.60;;;12.30;99.90;;;;;;5092719;28;20188;-45
2023/05/16 12:28:11;;;;;;;9.30;8.40;;;12.40;99.90;;;;;;5095607;28;20461;-44
2023/05/16 12:30:41;;;;;;;8.37;7.50;;;12.40;99.90;;;;;;5094775;28;20465;-44
2023/05/16 12:33:08;;;;;;;8.90;8.00;;;12.50;99.90;;;;;;5094574;28;20435;-48
2023/05/16 12:35:36;;;;;;;8.70;7.80;;;12.60;99.90;;;;;;5095421;28;20407;-45
2023/05/16 12:38:06;;;;;;;9.97;8.93;;;12.80;78.80;;;;;;5096076;28;20434;-44
2023/05/16 12:40:32;;;;;;;10.30;9.23;;;12.80;1.00;;;;;;5096610;28;20680;-44